sensor_id;sensor_type;location;lat;lon;timestamp;temperature;humidity
35668;DHT22;22158;59.280;17.806;2023-04-06T05:01:13;0.90;99.90
35668;DHT22;22158;59.280;17.806;2023-04-06T05:03:39;0.90;99.90
35668;DHT22;22158;59.280;17.806;2023-04-06T05:06:05;0.90;99.90
35668;DHT22;22158;59.280;17.806;2023-04-06T05:08:31;1.00;99.90
35668;DHT22;22158;59.280;17.806;2023-04-06T05:10:57;1.00;99.90
35668;DHT22;22158;59.280;17.806;2023-04-06T05:13:23;1.00;99.90
35668;DHT22;22158;59.280;17.806;2023-04-06T05:15:48;1.00;99.90
35668;DHT22;22158;59.280;17.806;2023-04-06T05:18:14;1.10;99.90
35668;DHT22;22158;59.280;17.806;2023-04-06T05:20:40;1.10;99.90
35668;DHT22;22158;59.280;17.806;2023-04-06T05:23:05;1.20;99.90
35668;DHT22;22158;59.280;17.806;2023-04-06T05:25:32;1.20;99.90
35668;DHT22;22158;59.280;17.806;2023-04-06T05:27:58;1.30;99.90
35668;DHT22;22158;59.280;17.806;2023-04-06T05:30:23;1.40;99.90
35668;DHT22;22158;59.280;17.806;2023-04-06T05:32:49;1.50;99.90
35668;DHT22;22158;59.280;17.806;2023-04-06T05:35:15;1.50;99.90
35668;DHT22;22158;59.280;17.806;2023-04-06T05:37:42;1.50;99.90
35668;DHT22;22158;59.280;17.806;2023-04-06T05:40:08;1.50;99.90
35668;DHT22;22158;59.280;17.806;2023-04-06T05:42:41;1.50;99.90
35668;DHT22;22158;59.280;17.806;2023-04-06T05:45:09;1.50;99.90
35668;DHT22;22158;59.280;17.806;2023-04-06T05:47:44;1.50;99.90
35668;DHT22;22158;59.280;17.806;2023-04-06T05:50:11;1.60;99.90
35668;DHT22;22158;59.280;17.806;2023-04-06T05:52:37;1.70;99.90
35668;DHT22;22158;59.280;17.806;2023-04-06T05:55:04;1.70;99.90
35668;DHT22;22158;59.280;17.806;2023-04-06T05:57:30;1.70;99.90
35668;DHT22;22158;59.280;17.806;2023-04-06T05:59:55;1.80;99.90
35668;DHT22;22158;59.280;17.806;2023-04-06T06:02:21;1.80;99.90
35668;DHT22;22158;59.280;17.806;2023-04-06T06:04:47;1.90;99.90
35668;DHT22;22158;59.280;17.806;2023-04-06T06:07:14;1.90;99.90
35668;DHT22;22158;59.280;17.806;2023-04-06T06:09:39;1.90;99.90
35668;DHT22;22158;59.280;17.806;2023-04-06T06:12:05;1.90;99.90
35668;DHT22;22158;59.280;17.806;2023-04-06T06:14:31;2.00;99.90
35668;DHT22;22158;59.280;17.806;2023-04-06T06:16:56;2.00;99.90
35668;DHT22;22158;59.280;17.806;2023-04-06T06:19:22;2.10;99.90
35668;DHT22;22158;59.280;17.806;2023-04-06T06:21:47;2.20;99.90
35668;DHT22;22158;59.280;17.806;2023-04-06T06:24:13;2.20;99.90
35668;DHT22;22158;59.280;17.806;2023-04-06T06:26:39;2.30;99.90
35668;DHT22;22158;59.280;17.806;2023-04-06T06:29:05;2.30;99.90
35668;DHT22;22158;59.280;17.806;2023-04-06T06:31:31;2.30;99.90
35668;DHT22;22158;59.280;17.806;2023-04-06T06:33:57;2.30;99.90
35668;DHT22;22158;59.280;17.806;2023-04-06T06:36:22;2.40;99.90
35668;DHT22;22158;59.280;17.806;2023-04-06T06:38:48;2.40;99.90
35668;DHT22;22158;59.280;17.806;2023-04-06T06:41:13;2.40;99.90
35668;DHT22;22158;59.280;17.806;2023-04-06T06:43:39;2.40;99.90
35668;DHT22;22158;59.280;17.806;2023-04-06T06:46:05;2.40;99.90
35668;DHT22;22158;59.280;17.806;2023-04-06T06:48:31;2.40;99.90
35668;DHT22;22158;59.280;17.806;2023-04-06T06:50:57;2.50;99.90
35668;DHT22;22158;59.280;17.806;2023-04-06T06:53:23;2.50;99.90
35668;DHT22;22158;59.280;17.806;2023-04-06T06:55:49;2.50;99.90
35668;DHT22;22158;59.280;17.806;2023-04-06T06:58:14;2.60;99.90
35668;DHT22;22158;59.280;17.806;2023-04-06T07:00:40;2.70;99.90
35668;DHT22;22158;59.280;17.806;2023-04-06T07:03:06;2.70;99.90
35668;DHT22;22158;59.280;17.806;2023-04-06T07:05:32;2.70;99.90
35668;DHT22;22158;59.280;17.806;2023-04-06T07:07:58;2.80;99.90
35668;DHT22;22158;59.280;17.806;2023-04-06T07:10:23;2.80;99.90
35668;DHT22;22158;59.280;17.806;2023-04-06T07:12:49;2.80;99.90
35668;DHT22;22158;59.280;17.806;2023-04-06T07:15:16;2.80;99.90
35668;DHT22;22158;59.280;17.806;2023-04-06T07:17:42;2.90;99.90
35668;DHT22;22158;59.280;17.806;2023-04-06T07:20:10;3.00;99.90
35668;DHT22;22158;59.280;17.806;2023-04-06T07:22:37;3.00;99.90
35668;DHT22;22158;59.280;17.806;2023-04-06T07:25:03;3.10;99.90
35668;DHT22;22158;59.280;17.806;2023-04-06T07:27:28;3.20;99.90
35668;DHT22;22158;59.280;17.806;2023-04-06T07:29:54;3.20;99.90
35668;DHT22;22158;59.280;17.806;2023-04-06T07:32:20;3.20;99.90
35668;DHT22;22158;59.280;17.806;2023-04-06T07:34:45;3.30;99.90
35668;DHT22;22158;59.280;17.806;2023-04-06T07:37:12;3.40;99.90
35668;DHT22;22158;59.280;17.806;2023-04-06T07:39:37;3.40;99.90
35668;DHT22;22158;59.280;17.806;2023-04-06T07:42:03;3.40;99.90
35668;DHT22;22158;59.280;17.806;2023-04-06T07:44:29;3.40;99.90
35668;DHT22;22158;59.280;17.806;2023-04-06T07:46:54;3.40;99.90
35668;DHT22;22158;59.280;17.806;2023-04-06T07:49:20;3.40;99.90
35668;DHT22;22158;59.280;17.806;2023-04-06T07:51:46;3.50;99.90
35668;DHT22;22158;59.280;17.806;2023-04-06T07:54:12;3.60;99.90
35668;DHT22;22158;59.280;17.806;2023-04-06T07:56:37;3.70;99.90
35668;DHT22;22158;59.280;17.806;2023-04-06T07:59:03;3.70;99.90
35668;DHT22;22158;59.280;17.806;2023-04-06T08:01:28;3.80;99.90
35668;DHT22;22158;59.280;17.806;2023-04-06T08:03:55;3.80;99.90
35668;DHT22;22158;59.280;17.806;2023-04-06T08:06:21;3.80;99.90
35668;DHT22;22158;59.280;17.806;2023-04-06T08:08:47;3.90;99.90
35668;DHT22;22158;59.280;17.806;2023-04-06T08:11:12;4.00;99.90
35668;DHT22;22158;59.280;17.806;2023-04-06T08:13:38;4.10;99.90
35668;DHT22;22158;59.280;17.806;2023-04-06T08:16:04;4.20;99.90
35668;DHT22;22158;59.280;17.806;2023-04-06T08:18:29;4.20;99.90
35668;DHT22;22158;59.280;17.806;2023-04-06T08:20:56;4.30;99.90
35668;DHT22;22158;59.280;17.806;2023-04-06T08:23:22;4.50;99.90
35668;DHT22;22158;59.280;17.806;2023-04-06T08:25:47;4.50;99.90
35668;DHT22;22158;59.280;17.806;2023-04-06T08:28:13;4.50;99.90
35668;DHT22;22158;59.280;17.806;2023-04-06T08:30:42;4.50;99.90
35668;DHT22;22158;59.280;17.806;2023-04-06T08:33:08;4.60;99.90
35668;DHT22;22158;59.280;17.806;2023-04-06T08:35:34;4.70;99.90
35668;DHT22;22158;59.280;17.806;2023-04-06T08:37:59;4.70;99.90
35668;DHT22;22158;59.280;17.806;2023-04-06T08:40:25;4.90;99.90
35668;DHT22;22158;59.280;17.806;2023-04-06T08:42:55;4.90;99.90
35668;DHT22;22158;59.280;17.806;2023-04-06T08:45:21;5.10;99.90
35668;DHT22;22158;59.280;17.806;2023-04-06T08:47:51;5.20;99.90
35668;DHT22;22158;59.280;17.806;2023-04-06T08:50:18;5.20;99.90
35668;DHT22;22158;59.280;17.806;2023-04-06T08:52:47;5.20;99.90
35668;DHT22;22158;59.280;17.806;2023-04-06T08:55:13;5.30;99.90
35668;DHT22;22158;59.280;17.806;2023-04-06T08:57:39;5.30;99.90
35668;DHT22;22158;59.280;17.806;2023-04-06T09:00:09;5.30;99.90
35668;DHT22;22158;59.280;17.806;2023-04-06T09:02:38;5.40;99.90
35668;DHT22;22158;59.280;17.806;2023-04-06T09:05:04;5.50;99.90
35668;DHT22;22158;59.280;17.806;2023-04-06T09:07:30;5.40;99.90
35668;DHT22;22158;59.280;17.806;2023-04-06T09:09:56;5.40;99.90
35668;DHT22;22158;59.280;17.806;2023-04-06T09:12:28;5.40;99.90
35668;DHT22;22158;59.280;17.806;2023-04-06T09:14:54;5.50;99.90
35668;DHT22;22158;59.280;17.806;2023-04-06T09:17:25;5.50;99.90
35668;DHT22;22158;59.280;17.806;2023-04-06T09:19:51;5.20;99.90
35668;DHT22;22158;59.280;17.806;2023-04-06T09:22:17;5.30;99.90
35668;DHT22;22158;59.280;17.806;2023-04-06T09:24:51;5.40;99.90
35668;DHT22;22158;59.280;17.806;2023-04-06T09:27:17;5.20;99.90
35668;DHT22;22158;59.280;17.806;2023-04-06T09:29:44;5.30;99.90
35668;DHT22;22158;59.280;17.806;2023-04-06T09:32:11;5.40;99.90
35668;DHT22;22158;59.280;17.806;2023-04-06T09:34:38;5.40;99.90
35668;DHT22;22158;59.280;17.806;2023-04-06T09:37:17;5.50;99.90
35668;DHT22;22158;59.280;17.806;2023-04-06T09:39:46;5.60;99.90
35668;DHT22;22158;59.280;17.806;2023-04-06T09:42:24;5.60;99.90
35668;DHT22;22158;59.280;17.806;2023-04-06T09:44:50;5.60;99.90
35668;DHT22;22158;59.280;17.806;2023-04-06T09:47:16;5.70;99.90
35668;DHT22;22158;59.280;17.806;2023-04-06T09:49:43;5.80;99.90
35668;DHT22;22158;59.280;17.806;2023-04-06T09:52:11;5.90;99.90
35668;DHT22;22158;59.280;17.806;2023-04-06T09:54:38;5.90;99.90
35668;DHT22;22158;59.280;17.806;2023-04-06T09:57:07;5.90;99.90
35668;DHT22;22158;59.280;17.806;2023-04-06T10:02:18;5.90;99.90
35668;DHT22;22158;59.280;17.806;2023-04-06T10:04:58;5.90;99.90
35668;DHT22;22158;59.280;17.806;2023-04-06T10:07:25;5.80;99.90
35668;DHT22;22158;59.280;17.806;2023-04-06T10:09:53;5.70;99.90
35668;DHT22;22158;59.280;17.806;2023-04-06T10:12:20;5.70;99.90
35668;DHT22;22158;59.280;17.806;2023-04-06T10:14:46;5.80;99.90
35668;DHT22;22158;59.280;17.806;2023-04-06T10:17:12;5.70;99.90
35668;DHT22;22158;59.280;17.806;2023-04-06T10:19:50;5.70;99.90
35668;DHT22;22158;59.280;17.806;2023-04-06T10:22:24;5.70;99.90
35668;DHT22;22158;59.280;17.806;2023-04-06T10:24:51;5.70;99.90
35668;DHT22;22158;59.280;17.806;2023-04-06T10:27:27;5.80;99.90
35668;DHT22;22158;59.280;17.806;2023-04-06T10:29:54;5.90;99.90
35668;DHT22;22158;59.280;17.806;2023-04-06T10:32:19;5.90;99.90
35668;DHT22;22158;59.280;17.806;2023-04-06T10:34:45;6.00;99.90
35668;DHT22;22158;59.280;17.806;2023-04-06T10:37:14;5.90;99.90
35668;DHT22;22158;59.280;17.806;2023-04-06T10:39:53;5.90;99.90
35668;DHT22;22158;59.280;17.806;2023-04-06T10:42:37;6.00;99.90
35668;DHT22;22158;59.280;17.806;2023-04-06T10:45:06;6.00;99.90
35668;DHT22;22158;59.280;17.806;2023-04-06T10:47:41;6.10;99.90
35668;DHT22;22158;59.280;17.806;2023-04-06T10:50:07;6.10;99.90
35668;DHT22;22158;59.280;17.806;2023-04-06T10:52:33;6.20;99.90
35668;DHT22;22158;59.280;17.806;2023-04-06T10:54:58;6.10;99.90
35668;DHT22;22158;59.280;17.806;2023-04-06T10:57:29;6.00;99.90
35668;DHT22;22158;59.280;17.806;2023-04-06T10:59:56;5.90;99.90
35668;DHT22;22158;59.280;17.806;2023-04-06T11:02:21;6.00;99.90
35668;DHT22;22158;59.280;17.806;2023-04-06T11:04:57;6.00;99.90
35668;DHT22;22158;59.280;17.806;2023-04-06T11:07:26;6.10;99.70
35668;DHT22;22158;59.280;17.806;2023-04-06T11:09:53;6.10;99.40
35668;DHT22;22158;59.280;17.806;2023-04-06T11:12:26;6.10;99.90
35668;DHT22;22158;59.280;17.806;2023-04-06T11:14:59;6.10;99.90
35668;DHT22;22158;59.280;17.806;2023-04-06T11:17:30;6.30;99.90
35668;DHT22;22158;59.280;17.806;2023-04-06T11:19:57;6.60;99.90
35668;DHT22;22158;59.280;17.806;2023-04-06T11:22:23;6.80;99.00
35668;DHT22;22158;59.280;17.806;2023-04-06T11:24:49;6.90;99.30
35668;DHT22;22158;59.280;17.806;2023-04-06T11:27:15;6.70;98.40
35668;DHT22;22158;59.280;17.806;2023-04-06T11:29:41;6.70;98.30
35668;DHT22;22158;59.280;17.806;2023-04-06T11:32:07;6.60;99.30
35668;DHT22;22158;59.280;17.806;2023-04-06T11:34:38;6.70;99.60
35668;DHT22;22158;59.280;17.806;2023-04-06T11:37:08;7.00;99.90
35668;DHT22;22158;59.280;17.806;2023-04-06T11:39:51;7.30;99.40
35668;DHT22;22158;59.280;17.806;2023-04-06T11:42:25;7.30;97.50
35668;DHT22;22158;59.280;17.806;2023-04-06T11:44:53;7.20;96.70
35668;DHT22;22158;59.280;17.806;2023-04-06T11:47:20;6.90;97.10
35668;DHT22;22158;59.280;17.806;2023-04-06T11:49:51;6.60;98.00
35668;DHT22;22158;59.280;17.806;2023-04-06T11:52:25;6.50;98.90
35668;DHT22;22158;59.280;17.806;2023-04-06T11:54:52;6.20;98.10
35668;DHT22;22158;59.280;17.806;2023-04-06T11:57:20;6.00;98.80
35668;DHT22;22158;59.280;17.806;2023-04-06T11:59:46;6.20;98.60
35668;DHT22;22158;59.280;17.806;2023-04-06T12:02:11;6.30;99.90
35668;DHT22;22158;59.280;17.806;2023-04-06T12:04:37;6.40;99.10
35668;DHT22;22158;59.280;17.806;2023-04-06T12:07:03;6.40;97.90
35668;DHT22;22158;59.280;17.806;2023-04-06T12:09:29;6.70;99.50
35668;DHT22;22158;59.280;17.806;2023-04-06T12:11:55;7.00;99.90
35668;DHT22;22158;59.280;17.806;2023-04-06T12:14:21;7.20;99.50
35668;DHT22;22158;59.280;17.806;2023-04-06T12:16:47;7.20;98.60
35668;DHT22;22158;59.280;17.806;2023-04-06T12:19:12;7.40;99.50
35668;DHT22;22158;59.280;17.806;2023-04-06T12:21:38;7.40;99.00
35668;DHT22;22158;59.280;17.806;2023-04-06T12:24:04;7.70;98.80
35668;DHT22;22158;59.280;17.806;2023-04-06T12:26:31;8.00;99.60
35668;DHT22;22158;59.280;17.806;2023-04-06T12:28:57;8.10;98.30
35668;DHT22;22158;59.280;17.806;2023-04-06T12:31:23;8.30;97.90
35668;DHT22;22158;59.280;17.806;2023-04-06T12:33:51;8.30;97.20
35668;DHT22;22158;59.280;17.806;2023-04-06T12:36:19;8.10;96.40
35668;DHT22;22158;59.280;17.806;2023-04-06T12:38:48;7.90;96.80
35668;DHT22;22158;59.280;17.806;2023-04-06T12:41:14;7.90;96.30
35668;DHT22;22158;59.280;17.806;2023-04-06T12:43:41;8.10;96.40
35668;DHT22;22158;59.280;17.806;2023-04-06T12:46:07;8.30;98.20
35668;DHT22;22158;59.280;17.806;2023-04-06T12:48:33;8.40;95.70
35668;DHT22;22158;59.280;17.806;2023-04-06T12:51:03;8.60;95.90
35668;DHT22;22158;59.280;17.806;2023-04-06T12:53:28;8.60;95.30
35668;DHT22;22158;59.280;17.806;2023-04-06T12:55:55;8.60;94.80
35668;DHT22;22158;59.280;17.806;2023-04-06T12:58:21;8.20;94.10
35668;DHT22;22158;59.280;17.806;2023-04-06T13:00:48;8.00;94.40
35668;DHT22;22158;59.280;17.806;2023-04-06T13:03:15;8.10;95.50
35668;DHT22;22158;59.280;17.806;2023-04-06T13:05:50;8.30;95.30
35668;DHT22;22158;59.280;17.806;2023-04-06T13:08:18;8.40;95.70
35668;DHT22;22158;59.280;17.806;2023-04-06T13:10:46;8.30;95.90
35668;DHT22;22158;59.280;17.806;2023-04-06T13:13:16;8.10;95.60
35668;DHT22;22158;59.280;17.806;2023-04-06T13:15:42;8.20;95.00
35668;DHT22;22158;59.280;17.806;2023-04-06T13:18:09;8.20;95.60
35668;DHT22;22158;59.280;17.806;2023-04-06T13:20:35;8.10;94.60
35668;DHT22;22158;59.280;17.806;2023-04-06T13:23:01;8.00;95.70
35668;DHT22;22158;59.280;17.806;2023-04-06T13:25:26;7.90;95.40
35668;DHT22;22158;59.280;17.806;2023-04-06T13:27:53;8.10;94.90
35668;DHT22;22158;59.280;17.806;2023-04-06T13:30:19;8.10;94.60
35668;DHT22;22158;59.280;17.806;2023-04-06T13:32:44;8.00;95.90
35668;DHT22;22158;59.280;17.806;2023-04-06T13:35:10;8.00;96.50
35668;DHT22;22158;59.280;17.806;2023-04-06T13:37:36;8.10;96.40
35668;DHT22;22158;59.280;17.806;2023-04-06T13:40:02;7.90;95.90
35668;DHT22;22158;59.280;17.806;2023-04-06T13:42:30;8.10;95.50
35668;DHT22;22158;59.280;17.806;2023-04-06T13:44:55;8.20;94.70
35668;DHT22;22158;59.280;17.806;2023-04-06T13:47:21;8.10;95.30
35668;DHT22;22158;59.280;17.806;2023-04-06T13:49:47;8.00;95.40
35668;DHT22;22158;59.280;17.806;2023-04-06T13:52:13;8.00;95.70
35668;DHT22;22158;59.280;17.806;2023-04-06T13:54:38;7.80;96.50
35668;DHT22;22158;59.280;17.806;2023-04-06T13:57:04;7.80;96.60
35668;DHT22;22158;59.280;17.806;2023-04-06T13:59:34;7.80;96.40
35668;DHT22;22158;59.280;17.806;2023-04-06T14:02:04;7.70;96.70
35668;DHT22;22158;59.280;17.806;2023-04-06T14:04:30;7.70;97.20
35668;DHT22;22158;59.280;17.806;2023-04-06T14:06:57;7.70;96.00
35668;DHT22;22158;59.280;17.806;2023-04-06T14:09:23;7.60;95.90
35668;DHT22;22158;59.280;17.806;2023-04-06T14:11:49;7.50;96.60
35668;DHT22;22158;59.280;17.806;2023-04-06T14:14:16;7.40;97.20
35668;DHT22;22158;59.280;17.806;2023-04-06T14:16:42;7.50;96.80
35668;DHT22;22158;59.280;17.806;2023-04-06T14:19:15;7.60;97.40
35668;DHT22;22158;59.280;17.806;2023-04-06T14:21:46;7.90;97.10
35668;DHT22;22158;59.280;17.806;2023-04-06T14:24:11;8.00;96.20
35668;DHT22;22158;59.280;17.806;2023-04-06T14:26:38;7.90;95.50
35668;DHT22;22158;59.280;17.806;2023-04-06T14:29:04;7.80;95.60
35668;DHT22;22158;59.280;17.806;2023-04-06T14:31:31;7.70;96.30
35668;DHT22;22158;59.280;17.806;2023-04-06T14:33:57;7.70;96.60
35668;DHT22;22158;59.280;17.806;2023-04-06T14:36:23;7.90;96.70
35668;DHT22;22158;59.280;17.806;2023-04-06T14:38:49;7.90;96.10
35668;DHT22;22158;59.280;17.806;2023-04-06T14:41:15;8.00;96.10
35668;DHT22;22158;59.280;17.806;2023-04-06T14:43:41;7.90;96.10
35668;DHT22;22158;59.280;17.806;2023-04-06T14:46:07;7.80;96.80
35668;DHT22;22158;59.280;17.806;2023-04-06T14:48:34;7.80;97.20
35668;DHT22;22158;59.280;17.806;2023-04-06T14:50:59;7.70;96.70
35668;DHT22;22158;59.280;17.806;2023-04-06T14:53:25;7.60;96.50
35668;DHT22;22158;59.280;17.806;2023-04-06T14:55:52;7.60;97.10
35668;DHT22;22158;59.280;17.806;2023-04-06T14:58:21;7.50;97.50
35668;DHT22;22158;59.280;17.806;2023-04-06T15:00:48;7.40;97.40
35668;DHT22;22158;59.280;17.806;2023-04-06T15:03:14;7.40;97.00
35668;DHT22;22158;59.280;17.806;2023-04-06T15:05:40;7.20;96.80
35668;DHT22;22158;59.280;17.806;2023-04-06T15:08:06;7.10;97.00
35668;DHT22;22158;59.280;17.806;2023-04-06T15:10:35;6.90;97.40
35668;DHT22;22158;59.280;17.806;2023-04-06T15:13:01;6.90;98.00
35668;DHT22;22158;59.280;17.806;2023-04-06T15:15:26;7.00;98.00
35668;DHT22;22158;59.280;17.806;2023-04-06T15:17:53;7.10;98.20
35668;DHT22;22158;59.280;17.806;2023-04-06T15:20:19;7.20;98.00
35668;DHT22;22158;59.280;17.806;2023-04-06T15:22:44;7.20;97.20
35668;DHT22;22158;59.280;17.806;2023-04-06T15:25:10;7.20;97.30
35668;DHT22;22158;59.280;17.806;2023-04-06T15:27:36;7.20;97.30
35668;DHT22;22158;59.280;17.806;2023-04-06T15:30:02;7.10;96.90
35668;DHT22;22158;59.280;17.806;2023-04-06T15:32:28;7.00;97.00
35668;DHT22;22158;59.280;17.806;2023-04-06T15:34:57;6.90;97.50
35668;DHT22;22158;59.280;17.806;2023-04-06T15:37:22;6.80;97.40
35668;DHT22;22158;59.280;17.806;2023-04-06T15:39:48;6.70;97.50
35668;DHT22;22158;59.280;17.806;2023-04-06T15:42:13;6.70;97.10
35668;DHT22;22158;59.280;17.806;2023-04-06T15:44:39;6.60;97.20
35668;DHT22;22158;59.280;17.806;2023-04-06T15:47:05;6.40;97.50
35668;DHT22;22158;59.280;17.806;2023-04-06T15:49:31;6.30;97.40
35668;DHT22;22158;59.280;17.806;2023-04-06T15:51:56;6.20;97.60
35668;DHT22;22158;59.280;17.806;2023-04-06T15:54:22;6.10;97.60
35668;DHT22;22158;59.280;17.806;2023-04-06T15:56:48;6.10;98.00
35668;DHT22;22158;59.280;17.806;2023-04-06T15:59:14;6.00;98.20
35668;DHT22;22158;59.280;17.806;2023-04-06T16:01:40;5.90;98.20
35668;DHT22;22158;59.280;17.806;2023-04-06T16:04:07;5.90;98.40
35668;DHT22;22158;59.280;17.806;2023-04-06T16:06:33;5.90;99.00
35668;DHT22;22158;59.280;17.806;2023-04-06T16:08:58;5.80;98.70
35668;DHT22;22158;59.280;17.806;2023-04-06T16:11:24;5.80;99.60
35668;DHT22;22158;59.280;17.806;2023-04-06T16:13:50;5.60;99.90
35668;DHT22;22158;59.280;17.806;2023-04-06T16:16:16;5.50;99.90
35668;DHT22;22158;59.280;17.806;2023-04-06T16:18:41;5.40;99.90
35668;DHT22;22158;59.280;17.806;2023-04-06T16:21:07;5.30;99.90
35668;DHT22;22158;59.280;17.806;2023-04-06T16:23:33;5.30;99.90
35668;DHT22;22158;59.280;17.806;2023-04-06T16:25:58;5.30;99.90
35668;DHT22;22158;59.280;17.806;2023-04-06T16:28:24;5.20;99.90
35668;DHT22;22158;59.280;17.806;2023-04-06T16:30:50;5.20;99.90
35668;DHT22;22158;59.280;17.806;2023-04-06T16:33:16;5.10;99.90
35668;DHT22;22158;59.280;17.806;2023-04-06T16:35:47;5.10;99.90
35668;DHT22;22158;59.280;17.806;2023-04-06T16:38:13;5.00;99.90
35668;DHT22;22158;59.280;17.806;2023-04-06T16:40:39;4.90;99.90
35668;DHT22;22158;59.280;17.806;2023-04-06T16:43:04;4.90;99.90
35668;DHT22;22158;59.280;17.806;2023-04-06T16:45:30;4.80;99.90
35668;DHT22;22158;59.280;17.806;2023-04-06T16:47:56;4.80;99.90
35668;DHT22;22158;59.280;17.806;2023-04-06T16:50:22;4.80;99.90
35668;DHT22;22158;59.280;17.806;2023-04-06T16:52:47;4.70;99.90
35668;DHT22;22158;59.280;17.806;2023-04-06T16:55:13;4.70;99.90
35668;DHT22;22158;59.280;17.806;2023-04-06T16:57:38;4.70;99.90
35668;DHT22;22158;59.280;17.806;2023-04-06T17:00:06;4.70;99.90
35668;DHT22;22158;59.280;17.806;2023-04-06T17:02:32;4.70;99.90
35668;DHT22;22158;59.280;17.806;2023-04-06T17:05:00;4.60;99.90
35668;DHT22;22158;59.280;17.806;2023-04-06T17:07:26;4.50;99.90
35668;DHT22;22158;59.280;17.806;2023-04-06T17:09:58;4.50;99.90
35668;DHT22;22158;59.280;17.806;2023-04-06T17:12:24;4.40;99.90
35668;DHT22;22158;59.280;17.806;2023-04-06T17:14:49;4.30;99.90
35668;DHT22;22158;59.280;17.806;2023-04-06T17:17:15;4.40;99.90
35668;DHT22;22158;59.280;17.806;2023-04-06T17:19:41;4.30;99.90
35668;DHT22;22158;59.280;17.806;2023-04-06T17:22:07;4.30;99.90
35668;DHT22;22158;59.280;17.806;2023-04-06T17:24:32;4.20;99.90
35668;DHT22;22158;59.280;17.806;2023-04-06T17:26:58;4.20;99.90
35668;DHT22;22158;59.280;17.806;2023-04-06T17:29:23;4.20;99.90
35668;DHT22;22158;59.280;17.806;2023-04-06T17:31:49;4.20;99.90
35668;DHT22;22158;59.280;17.806;2023-04-06T17:34:15;4.20;99.90
35668;DHT22;22158;59.280;17.806;2023-04-06T17:36:41;4.20;99.90
35668;DHT22;22158;59.280;17.806;2023-04-06T17:39:06;4.20;99.90
35668;DHT22;22158;59.280;17.806;2023-04-06T17:41:32;4.10;99.90
35668;DHT22;22158;59.280;17.806;2023-04-06T17:43:58;4.10;99.90
35668;DHT22;22158;59.280;17.806;2023-04-06T17:46:24;4.10;99.90
35668;DHT22;22158;59.280;17.806;2023-04-06T17:48:50;4.10;99.90
35668;DHT22;22158;59.280;17.806;2023-04-06T17:51:17;4.10;99.90
35668;DHT22;22158;59.280;17.806;2023-04-06T17:53:45;4.00;99.90
35668;DHT22;22158;59.280;17.806;2023-04-06T17:56:10;3.90;99.90
35668;DHT22;22158;59.280;17.806;2023-04-06T17:58:36;3.90;99.90
35668;DHT22;22158;59.280;17.806;2023-04-06T18:01:08;3.80;99.90
35668;DHT22;22158;59.280;17.806;2023-04-06T18:03:36;3.80;99.90
35668;DHT22;22158;59.280;17.806;2023-04-06T18:06:11;3.80;99.90
35668;DHT22;22158;59.280;17.806;2023-04-06T18:08:37;3.70;99.90
35668;DHT22;22158;59.280;17.806;2023-04-06T18:11:03;3.70;99.90
35668;DHT22;22158;59.280;17.806;2023-04-06T18:13:29;3.60;99.90
35668;DHT22;22158;59.280;17.806;2023-04-06T18:15:55;3.60;99.90
35668;DHT22;22158;59.280;17.806;2023-04-06T18:18:20;3.50;99.90
35668;DHT22;22158;59.280;17.806;2023-04-06T18:20:46;3.50;99.90
35668;DHT22;22158;59.280;17.806;2023-04-06T18:23:12;3.50;99.90
35668;DHT22;22158;59.280;17.806;2023-04-06T18:25:38;3.40;99.90
35668;DHT22;22158;59.280;17.806;2023-04-06T18:28:04;3.40;99.90
35668;DHT22;22158;59.280;17.806;2023-04-06T18:30:30;3.30;99.90
35668;DHT22;22158;59.280;17.806;2023-04-06T18:32:56;3.30;99.90
35668;DHT22;22158;59.280;17.806;2023-04-06T18:35:21;3.30;99.90
35668;DHT22;22158;59.280;17.806;2023-04-06T18:37:47;3.30;99.90
35668;DHT22;22158;59.280;17.806;2023-04-06T18:40:32;3.30;99.90
35668;DHT22;22158;59.280;17.806;2023-04-06T18:42:58;3.30;99.90
35668;DHT22;22158;59.280;17.806;2023-04-06T18:45:24;3.30;99.90
35668;DHT22;22158;59.280;17.806;2023-04-06T18:47:50;3.30;99.90
35668;DHT22;22158;59.280;17.806;2023-04-06T18:50:16;3.30;99.90
35668;DHT22;22158;59.280;17.806;2023-04-06T18:52:41;3.30;99.90
35668;DHT22;22158;59.280;17.806;2023-04-06T18:55:07;3.20;99.90
35668;DHT22;22158;59.280;17.806;2023-04-06T18:57:33;3.30;99.90
35668;DHT22;22158;59.280;17.806;2023-04-06T19:00:00;3.20;99.90
35668;DHT22;22158;59.280;17.806;2023-04-06T19:02:27;3.20;99.90
35668;DHT22;22158;59.280;17.806;2023-04-06T19:04:52;3.20;99.90
35668;DHT22;22158;59.280;17.806;2023-04-06T19:07:18;3.20;99.90
35668;DHT22;22158;59.280;17.806;2023-04-06T19:09:43;3.20;99.90
35668;DHT22;22158;59.280;17.806;2023-04-06T19:12:09;3.20;99.90
35668;DHT22;22158;59.280;17.806;2023-04-06T19:14:35;3.10;99.90
35668;DHT22;22158;59.280;17.806;2023-04-06T19:17:00;3.10;99.90
35668;DHT22;22158;59.280;17.806;2023-04-06T19:19:26;3.10;99.90
35668;DHT22;22158;59.280;17.806;2023-04-06T19:21:51;3.10;99.90
35668;DHT22;22158;59.280;17.806;2023-04-06T19:24:17;3.10;99.90
35668;DHT22;22158;59.280;17.806;2023-04-06T19:26:43;3.00;99.90
35668;DHT22;22158;59.280;17.806;2023-04-06T19:29:09;3.00;99.90
35668;DHT22;22158;59.280;17.806;2023-04-06T19:31:34;3.00;99.90
35668;DHT22;22158;59.280;17.806;2023-04-06T19:34:00;3.00;99.90
35668;DHT22;22158;59.280;17.806;2023-04-06T19:36:26;2.90;99.90
35668;DHT22;22158;59.280;17.806;2023-04-06T19:38:53;3.00;99.90
35668;DHT22;22158;59.280;17.806;2023-04-06T19:41:19;2.90;99.90
35668;DHT22;22158;59.280;17.806;2023-04-06T19:43:46;2.90;99.90
35668;DHT22;22158;59.280;17.806;2023-04-06T19:46:12;2.90;99.90
35668;DHT22;22158;59.280;17.806;2023-04-06T19:48:39;2.90;99.90
35668;DHT22;22158;59.280;17.806;2023-04-06T19:51:05;2.90;99.90
35668;DHT22;22158;59.280;17.806;2023-04-06T19:53:31;2.80;99.90
35668;DHT22;22158;59.280;17.806;2023-04-06T19:55:56;2.80;99.90
35668;DHT22;22158;59.280;17.806;2023-04-06T19:58:22;2.80;99.90
35668;DHT22;22158;59.280;17.806;2023-04-06T20:00:48;2.80;99.90
35668;DHT22;22158;59.280;17.806;2023-04-06T20:03:14;2.80;99.90
35668;DHT22;22158;59.280;17.806;2023-04-06T20:05:40;2.80;99.90
35668;DHT22;22158;59.280;17.806;2023-04-06T20:08:06;2.80;99.90
35668;DHT22;22158;59.280;17.806;2023-04-06T20:10:32;2.70;99.90
35668;DHT22;22158;59.280;17.806;2023-04-06T20:12:58;2.70;99.90
35668;DHT22;22158;59.280;17.806;2023-04-06T20:15:26;2.70;99.90
35668;DHT22;22158;59.280;17.806;2023-04-06T20:17:51;2.70;99.90
35668;DHT22;22158;59.280;17.806;2023-04-06T20:20:17;2.70;99.90
35668;DHT22;22158;59.280;17.806;2023-04-06T20:22:43;2.70;99.90
35668;DHT22;22158;59.280;17.806;2023-04-06T20:25:09;2.70;99.90
35668;DHT22;22158;59.280;17.806;2023-04-06T20:27:35;2.70;99.90
35668;DHT22;22158;59.280;17.806;2023-04-06T20:30:01;2.70;99.90